Terminal Aerodrome Forecast
Issued by NWS Charleston, WV

Current Version | Previous Version | Text Only | Print | Product List | Glossary On
Versions: 1 2 3 4 5 6 7 8 9 10 11 12 13 14 15 16 17 18 19 20 21
000
FTUS41 KRLX 250210 AAA
TAFHTS
TAF AMD
KHTS 250210Z 2502/2524 17004KT P6SM SCT250
     FM250800 18005KT P6SM SCT100 BKN250
     FM251300 20008KT P6SM BKN100
     FM251600 22010G16KT P6SM SCT050 BKN100
     FM252200 21007KT P6SM VCTS BKN045CB=

USA.gov is the U.S. government's official web portal to all federal, state and local government web resources and services.